Time;durP1;ratioP1;P1;durP2;ratioP2;P2;SDS_P1;SDS_P2;PMS_P1;PMS_P2;Temp;Humidity;BMP_temperature;BMP_pressure;BME280_temperature;BME280_humidity;BME280_pressure;Samples;Min_cycle;Max_cycle;Signal;HPM_P1;HPM_P2
2021/12/13 00:00:13;;;;;;;16.50;13.88;;;;;;;5.94;97.00;101218.94;10253293;28;20042;-63
2021/12/13 00:05:36;;;;;;;16.70;14.98;;;;;;;5.97;96.86;101213.53;10267723;28;20133;-63
2021/12/13 00:10:47;;;;;;;18.35;15.23;;;;;;;5.93;96.41;101217.25;10247146;28;20519;-62
2021/12/13 00:16:01;;;;;;;18.20;13.95;;;;;;;6.07;95.97;101213.13;10267470;28;20485;-64
2021/12/13 00:21:20;;;;;;;17.23;13.93;;;;;;;6.03;94.81;101200.97;10244765;28;20042;-62
2021/12/13 00:26:27;;;;;;;16.48;13.40;;;;;;;6.17;94.38;101222.31;10265243;28;20128;-62
2021/12/13 00:31:43;;;;;;;14.68;13.20;;;;;;;5.99;94.70;101211.69;10275078;28;20695;-63
2021/12/13 00:36:51;;;;;;;15.23;13.63;;;;;;;6.06;94.89;101224.63;10267009;28;20066;-63
2021/12/13 00:41:54;;;;;;;17.83;13.88;;;;;;;5.86;94.83;101202.59;10245505;28;20137;-62
2021/12/13 00:47:02;;;;;;;17.60;13.65;;;;;;;5.92;95.52;101223.44;10266883;28;20043;-62
2021/12/13 00:52:05;;;;;;;17.48;13.00;;;;;;;5.93;95.26;101219.88;10267393;28;20050;-63
2021/12/13 00:57:07;;;;;;;14.32;11.98;;;;;;;5.99;95.32;101224.91;10259150;28;20502;-61
2021/12/13 01:02:49;;;;;;;14.30;12.30;;;;;;;6.11;94.61;101233.19;10274027;28;20061;-60
2021/12/13 01:08:21;;;;;;;14.68;11.93;;;;;;;6.12;94.34;101235.75;10266616;28;20098;-63
2021/12/13 01:13:35;;;;;;;12.50;11.18;;;;;;;6.08;94.08;101233.34;10250145;28;20118;-61
2021/12/13 01:24:10;;;;;;;13.02;11.02;;;;;;;6.13;93.86;101234.00;10268114;28;20050;-62
2021/12/13 01:29:25;;;;;;;13.68;11.43;;;;;;;6.19;93.69;101241.66;10285259;28;20133;-62
2021/12/13 01:34:30;;;;;;;13.60;11.13;;;;;;;6.12;93.68;101240.19;10260936;28;20550;-63
2021/12/13 01:39:34;;;;;;;15.02;10.82;;;;;;;6.21;93.46;101247.69;10273584;28;20055;-62
2021/12/13 01:44:41;;;;;;;12.40;10.35;;;;;;;6.15;92.72;101230.34;10273452;28;20070;-62
2021/12/13 01:49:46;;;;;;;11.63;10.43;;;;;;;6.18;93.08;101245.19;10259443;28;20049;-62
2021/12/13 01:54:50;;;;;;;16.85;10.85;;;;;;;6.29;92.41;101256.16;10273783;28;20074;-63
2021/12/13 02:00:09;;;;;;;12.77;10.80;;;;;;;6.27;92.38;101252.69;10281765;28;20129;-62
2021/12/13 02:05:15;;;;;;;14.82;10.70;;;;;;;6.35;92.70;101257.63;10262720;28;20609;-62
2021/12/13 02:10:27;;;;;;;10.98;9.88;;;;;;;6.32;92.71;101249.84;10272097;28;20126;-62
2021/12/13 02:21:05;;;;;;;11.23;9.73;;;;;;;6.36;92.23;101257.59;10272197;28;20046;-62
2021/12/13 02:26:08;;;;;;;12.82;10.88;;;;;;;6.26;93.49;101258.94;10272237;28;20138;-62
2021/12/13 02:31:21;;;;;;;12.18;10.20;;;;;;;6.29;93.87;101268.50;10292588;23;20065;-58
2021/12/13 02:36:31;;;;;;;13.13;11.82;;;;;;;6.22;94.80;101267.09;10257777;28;20161;-59
2021/12/13 02:41:33;;;;;;;17.92;11.00;;;;;;;6.35;94.31;101258.50;10259329;28;20126;-60
2021/12/13 02:46:35;;;;;;;14.38;11.27;;;;;;;6.45;94.17;101258.06;10260292;28;20471;-59
2021/12/13 02:51:48;;;;;;;13.07;10.65;;;;;;;6.51;93.43;101268.34;10259457;28;20368;-59
2021/12/13 02:57:16;;;;;;;10.90;9.80;;;;;;;6.51;93.59;101260.41;10258018;28;20062;-60
2021/12/13 03:02:20;;;;;;;11.93;10.55;;;;;;;6.62;92.43;101260.78;10253977;28;20070;-59
2021/12/13 03:07:30;;;;;;;12.02;10.68;;;;;;;6.59;92.08;101258.28;10258562;28;20126;-60
2021/12/13 03:12:32;;;;;;;12.80;10.90;;;;;;;6.51;92.70;101265.72;10258303;28;20043;-60
2021/12/13 03:17:38;;;;;;;12.23;10.95;;;;;;;6.53;92.73;101261.19;10262031;28;20129;-60
2021/12/13 03:22:45;;;;;;;12.23;10.45;;;;;;;6.52;92.71;101270.09;10256809;28;20038;-60
2021/12/13 03:27:53;;;;;;;12.23;10.75;;;;;;;6.48;93.32;101274.63;10244894;28;20226;-59
2021/12/13 03:33:00;;;;;;;16.67;12.35;;;;;;;6.40;94.24;101270.66;10259496;28;20114;-59
2021/12/13 03:38:09;;;;;;;13.05;11.35;;;;;;;6.34;94.65;101266.50;10257102;28;20440;-60
2021/12/13 03:43:17;;;;;;;12.50;11.23;;;;;;;6.39;94.62;101266.28;10256353;28;20434;-59
2021/12/13 03:48:21;;;;;;;14.73;11.98;;;;;;;6.25;95.50;101267.78;10255002;28;20059;-59
2021/12/13 03:53:28;;;;;;;15.60;11.88;;;;;;;6.40;95.03;101281.25;10257456;28;20543;-59
2021/12/13 03:58:35;;;;;;;13.88;11.85;;;;;;;6.42;95.13;101274.09;10253632;28;20142;-59
2021/12/13 04:03:37;;;;;;;14.65;11.75;;;;;;;6.30;95.28;101268.44;10255769;28;20201;-59
2021/12/13 04:08:39;;;;;;;13.90;12.40;;;;;;;6.33;95.48;101270.94;10255446;28;20505;-59
2021/12/13 04:13:45;;;;;;;14.98;12.63;;;;;;;6.38;95.39;101273.38;10252024;28;20039;-59
2021/12/13 04:24:04;;;;;;;15.77;13.00;;;;;;;6.39;95.22;101277.72;10254252;28;20126;-59
2021/12/13 04:29:14;;;;;;;14.38;12.43;;;;;;;6.41;95.15;101277.66;10254553;28;20500;-59
2021/12/13 04:34:16;;;;;;;15.60;13.05;;;;;;;6.47;94.80;101285.28;10237780;28;20070;-59
2021/12/13 04:39:27;;;;;;;15.85;13.05;;;;;;;6.48;94.55;101289.66;10252142;28;20479;-59
2021/12/13 04:44:37;;;;;;;15.80;12.65;;;;;;;6.45;94.70;101300.38;10253809;28;20140;-59
2021/12/13 04:49:42;;;;;;;17.65;13.68;;;;;;;6.50;94.49;101299.25;10253594;28;20174;-59
2021/12/13 04:54:49;;;;;;;13.57;12.18;;;;;;;6.54;94.18;101294.66;10254142;28;20193;-60
2021/12/13 04:59:58;;;;;;;15.35;12.57;;;;;;;6.68;93.04;101308.13;10257508;28;20057;-65
2021/12/13 05:05:03;;;;;;;13.75;12.27;;;;;;;6.70;92.76;101303.59;10262197;28;20135;-59
2021/12/13 05:10:05;;;;;;;;;;;;;;;6.78;92.24;101302.38;10262490;28;20617;-61
2021/12/13 05:15:11;;;;;;;13.10;11.70;;;;;;;6.80;92.14;101304.03;10262197;28;22690;-59
2021/12/13 05:20:20;;;;;;;16.58;12.70;;;;;;;6.75;92.39;101299.88;10261184;28;20479;-59
2021/12/13 05:25:32;;;;;;;13.52;11.85;;;;;;;6.76;92.48;101309.53;10260870;28;20558;-59
2021/12/13 05:30:41;;;;;;;15.30;11.75;;;;;;;6.81;91.75;101318.09;10258494;28;20429;-59
2021/12/13 05:35:46;;;;;;;12.90;11.05;;;;;;;6.90;91.58;101317.66;10260384;28;20200;-59
2021/12/13 05:40:47;;;;;;;13.32;11.93;;;;;;;6.85;91.29;101319.69;10259905;28;20447;-59
2021/12/13 05:46:08;;;;;;;12.15;10.70;;;;;;;6.98;91.10;101326.09;10260759;28;20093;-59
2021/12/13 05:51:24;;;;;;;15.18;12.15;;;;;;;6.99;90.90;101324.31;10247082;28;20411;-59
2021/12/13 05:56:39;;;;;;;14.35;11.80;;;;;;;7.00;90.74;101318.94;10259758;28;20501;-59
2021/12/13 06:01:40;;;;;;;13.38;11.45;;;;;;;7.03;90.54;101324.09;10220678;28;20283;-59
2021/12/13 06:06:53;;;;;;;12.45;10.65;;;;;;;6.95;90.86;101326.25;10220738;28;20054;-60
2021/12/13 06:12:04;;;;;;;12.95;11.27;;;;;;;6.89;91.14;101337.13;10222427;28;20055;-59
2021/12/13 06:17:19;;;;;;;12.18;10.93;;;;;;;6.89;91.12;101342.41;10218530;28;20456;-59
2021/12/13 06:22:21;;;;;;;;;;;;;;;6.87;91.40;101344.28;10213031;28;20062;-59
2021/12/13 06:27:43;;;;;;;14.48;11.77;;;;;;;6.90;91.04;101341.47;10221799;28;19926;-59
2021/12/13 06:32:53;;;;;;;12.90;10.63;;;;;;;6.94;90.87;101351.00;10217625;28;20158;-59
2021/12/13 06:37:55;;;;;;;13.30;11.88;;;;;;;6.97;90.55;101360.59;10221438;28;20170;-59
2021/12/13 06:42:59;;;;;;;13.93;12.30;;;;;;;6.79;90.86;101351.75;10215458;28;20479;-59
2021/12/13 06:48:05;;;;;;;19.00;11.80;;;;;;;6.84;91.42;101355.00;10221560;28;20353;-59
2021/12/13 06:53:11;;;;;;;13.75;11.85;;;;;;;6.90;91.07;101360.00;10221006;28;20083;-59
2021/12/13 06:58:12;;;;;;;13.98;12.45;;;;;;;6.95;90.75;101358.03;10224168;28;20161;-59
2021/12/13 07:03:23;;;;;;;12.73;11.43;;;;;;;6.95;90.41;101362.44;10217125;28;20051;-59
2021/12/13 07:08:37;;;;;;;14.73;12.98;;;;;;;6.95;90.69;101373.91;10222669;28;20043;-59
2021/12/13 07:13:50;;;;;;;12.80;11.18;;;;;;;7.07;90.94;101383.03;10222994;28;20142;-56
2021/12/13 07:18:57;;;;;;;14.52;12.65;;;;;;;7.11;89.45;101389.06;10220534;28;20377;-57
2021/12/13 07:24:15;;;;;;;13.27;11.70;;;;;;;6.99;90.19;101370.16;10219172;28;20152;-57
2021/12/13 07:29:28;;;;;;;14.38;11.98;;;;;;;7.12;89.94;101388.13;10217480;28;20528;-59
2021/12/13 07:34:29;;;;;;;14.82;12.30;;;;;;;6.93;90.31;101388.97;10220204;28;20051;-59
2021/12/13 07:39:32;;;;;;;14.10;12.52;;;;;;;7.00;90.29;101381.63;10204988;28;20129;-59
2021/12/13 07:44:39;;;;;;;13.73;12.32;;;;;;;7.09;89.70;101391.78;10225819;28;20055;-60
2021/12/13 07:49:46;;;;;;;16.10;11.85;;;;;;;7.11;89.49;101394.34;10223072;28;20608;-59
2021/12/13 07:54:48;;;;;;;14.35;12.85;;;;;;;7.14;89.56;101399.50;10226453;28;20496;-60
2021/12/13 07:59:52;;;;;;;14.23;12.63;;;;;;;7.22;89.08;101402.63;10224110;28;20075;-58
2021/12/13 08:04:57;;;;;;;12.52;11.32;;;;;;;7.31;88.79;101404.84;10226108;28;20138;-58
2021/12/13 08:10:08;;;;;;;14.45;12.30;;;;;;;7.38;88.01;101408.03;10222593;28;20166;-57
2021/12/13 08:15:14;;;;;;;15.52;12.20;;;;;;;7.40;88.06;101411.47;10228756;28;20063;-59
2021/12/13 08:20:25;;;;;;;14.60;11.90;;;;;;;7.22;88.00;101413.22;10226199;28;20066;-58
2021/12/13 08:25:31;;;;;;;12.15;10.93;;;;;;;7.25;88.64;101427.19;10222861;28;20055;-59
2021/12/13 08:30:44;;;;;;;12.40;11.20;;;;;;;7.41;88.55;101419.34;10221958;28;20528;-59
2021/12/13 08:36:07;;;;;;;13.02;11.30;;;;;;;7.41;87.52;101427.28;10228565;28;20166;-59
2021/12/13 08:41:15;;;;;;;13.07;11.68;;;;;;;7.55;87.16;101429.28;10216813;28;20528;-58
2021/12/13 08:46:29;;;;;;;13.00;11.05;;;;;;;7.60;86.50;101434.34;10232761;28;20600;-58
2021/12/13 08:51:31;;;;;;;12.48;11.15;;;;;;;7.50;87.21;101433.09;10208712;28;20079;-58
2021/12/13 08:56:40;;;;;;;12.70;11.35;;;;;;;7.50;87.06;101433.94;10227868;28;20221;-58
2021/12/13 09:01:48;;;;;;;12.98;11.52;;;;;;;7.68;86.70;101442.78;10226001;28;20062;-58
2021/12/13 09:06:55;;;;;;;11.77;10.57;;;;;;;7.81;85.78;101447.47;10225667;28;20396;-59
2021/12/13 09:12:01;;;;;;;10.60;9.60;;;;;;;7.83;85.26;101453.56;10231445;28;20073;-59
2021/12/13 09:17:21;;;;;;;11.10;9.90;;;;;;;7.89;85.39;101445.28;10224833;28;20484;-59
2021/12/13 09:22:29;;;;;;;14.10;10.30;;;;;;;7.95;85.00;101447.63;10212083;28;20043;-59
2021/12/13 09:27:45;;;;;;;12.10;10.88;;;;;;;8.07;85.18;101449.66;10221904;28;20051;-58
2021/12/13 09:32:52;;;;;;;11.55;10.15;;;;;;;8.38;84.45;101458.69;10222272;28;20490;-58
2021/12/13 09:37:57;;;;;;;12.35;11.05;;;;;;;8.47;83.32;101442.31;10220419;28;20448;-60
2021/12/13 09:42:59;;;;;;;10.93;9.68;;;;;;;8.73;82.64;101449.84;10226023;28;20140;-58
2021/12/13 09:48:21;;;;;;;12.90;11.45;;;;;;;8.88;80.65;101441.03;10220932;28;20640;-58
2021/12/13 09:53:29;;;;;;;11.70;10.25;;;;;;;9.26;79.37;101454.00;10224760;28;20407;-58
2021/12/13 09:58:39;;;;;;;13.30;11.07;;;;;;;9.38;78.04;101447.16;10224595;28;20051;-58
2021/12/13 10:04:12;;;;;;;13.48;11.90;;;;;;;9.47;78.41;101449.31;10224725;28;20088;-59
2021/12/13 10:09:16;;;;;;;13.85;11.55;;;;;;;9.44;77.61;101443.28;10224892;28;20065;-59
2021/12/13 10:14:23;;;;;;;13.43;12.07;;;;;;;9.35;77.70;101434.03;10225092;28;20062;-59
2021/12/13 10:19:41;;;;;;;14.60;13.20;;;;;;;9.29;78.16;101431.72;10221169;28;20057;-59
2021/12/13 10:24:50;;;;;;;15.65;12.13;;;;;;;9.45;77.19;101429.06;10223287;28;20051;-58
2021/12/13 10:29:55;;;;;;;14.82;12.82;;;;;;;9.75;77.31;101413.13;10222243;28;20053;-59
2021/12/13 10:35:02;;;;;;;15.60;13.00;;;;;;;10.47;74.72;101417.78;10221206;28;20106;-60
2021/12/13 10:40:27;;;;;;;14.57;11.60;;;;;;;11.54;69.87;101418.06;10222717;28;20490;-59
2021/12/13 10:45:31;;;;;;;;;;;;;;;11.96;68.22;101415.31;10206045;28;20185;-60
2021/12/13 10:50:44;;;;;;;11.63;10.35;;;;;;;13.25;63.52;101397.34;10216658;28;20017;-59
2021/12/13 10:55:56;;;;;;;13.02;11.70;;;;;;;12.47;64.39;101401.16;10225310;28;20551;-60
2021/12/13 11:01:08;;;;;;;12.77;11.48;;;;;;;11.94;66.00;101412.75;10219368;28;20039;-59
2021/12/13 11:06:11;;;;;;;11.65;10.45;;;;;;;12.03;66.20;101400.59;10221822;28;20050;-59
2021/12/13 11:11:29;;;;;;;11.02;9.93;;;;;;;12.01;66.42;101405.22;10224361;28;20052;-59
2021/12/13 11:16:40;;;;;;;10.65;9.65;;;;;;;11.39;68.64;101408.41;10221391;28;20212;-58
2021/12/13 11:21:46;;;;;;;15.10;13.38;;;;;;;10.68;71.07;101407.59;10217970;28;20511;-59
2021/12/13 11:26:53;;;;;;;12.98;11.73;;;;;;;10.50;73.72;101394.47;10223488;28;20158;-60
2021/12/13 11:31:58;;;;;;;9.63;8.50;;;;;;;10.27;74.73;101394.06;10222996;28;20146;-59
2021/12/13 11:37:11;;;;;;;12.95;11.60;;;;;;;10.17;75.25;101395.56;10218112;28;20738;-59
2021/12/13 11:42:38;;;;;;;9.07;7.05;;;;;;;10.01;76.27;101389.47;10219433;28;20074;-59
2021/12/13 11:48:09;;;;;;;9.32;8.45;;;;;;;10.06;76.58;101395.38;10219308;28;20059;-59
2021/12/13 11:53:30;;;;;;;10.60;8.55;;;;;;;10.08;76.97;101386.34;10221096;28;20193;-59
2021/12/13 11:58:42;;;;;;;10.30;8.95;;;;;;;10.13;77.17;101378.06;10221355;28;20489;-59
2021/12/13 12:03:58;;;;;;;9.02;8.20;;;;;;;10.12;77.05;101371.06;10223646;28;21288;-59
2021/12/13 12:09:31;;;;;;;8.35;7.55;;;;;;;10.10;76.81;101367.63;10213019;28;20142;-60
2021/12/13 12:14:34;;;;;;;10.00;8.65;;;;;;;10.01;77.29;101370.84;10194615;28;20463;-59
2021/12/13 12:19:40;;;;;;;9.65;8.63;;;;;;;10.11;77.26;101379.13;10219383;28;20506;-63
2021/12/13 12:24:46;;;;;;;9.93;8.75;;;;;;;10.12;77.43;101373.72;10217403;28;20200;-59
2021/12/13 12:29:52;;;;;;;9.38;8.40;;;;;;;10.20;77.32;101374.09;10218497;28;20053;-59
2021/12/13 12:35:05;;;;;;;9.85;8.52;;;;;;;10.12;76.85;101376.38;10212728;28;20058;-59
2021/12/13 12:40:18;;;;;;;9.60;8.38;;;;;;;9.96;78.02;101380.91;10202025;28;20061;-59
2021/12/13 12:45:19;;;;;;;9.80;8.85;;;;;;;10.03;77.97;101363.63;10219101;28;20127;-59
2021/12/13 12:50:30;;;;;;;9.27;8.05;;;;;;;10.03;77.45;101367.16;10218096;28;20112;-59
2021/12/13 12:55:40;;;;;;;8.55;7.65;;;;;;;10.03;78.00;101361.81;10215431;28;20046;-59
2021/12/13 13:00:44;;;;;;;7.40;6.40;;;;;;;9.95;77.52;101368.53;10203232;28;20238;-59
2021/12/13 13:05:45;;;;;;;12.50;11.40;;;;;;;9.91;77.46;101381.19;10223698;28;20058;-62
2021/12/13 13:10:54;;;;;;;7.40;6.60;;;;;;;9.94;76.84;101366.81;10220581;28;20054;-60
2021/12/13 13:15:55;;;;;;;8.07;7.00;;;;;;;9.81;77.47;101359.59;10204154;28;20063;-58
2021/12/13 13:21:02;;;;;;;8.13;7.05;;;;;;;9.87;77.38;101359.22;10220425;28;20052;-59
2021/12/13 13:26:05;;;;;;;23.02;21.42;;;;;;;9.90;76.89;101361.69;10223578;28;23277;-59
2021/12/13 13:31:23;;;;;;;8.43;7.60;;;;;;;9.85;76.77;101347.81;10209619;28;20105;-61
2021/12/13 13:36:32;;;;;;;9.68;8.77;;;;;;;9.90;77.39;101343.06;10228072;28;20074;-59
2021/12/13 13:41:35;;;;;;;10.85;9.07;;;;;;;9.87;77.14;101343.25;10225324;28;20153;-63
2021/12/13 13:46:39;;;;;;;9.35;8.02;;;;;;;9.80;77.31;101349.88;10226058;28;20416;-60
2021/12/13 13:51:41;;;;;;;8.85;6.82;;;;;;;9.80;77.54;101355.22;10227540;28;20130;-60
2021/12/13 13:56:46;;;;;;;8.30;7.18;;;;;;;9.77;77.35;101366.03;10226978;28;20195;-63
2021/12/13 14:01:53;;;;;;;8.05;7.25;;;;;;;9.80;77.32;101347.22;10226234;28;20134;-60
2021/12/13 14:07:08;;;;;;;10.98;7.95;;;;;;;9.74;77.71;101355.56;10206840;28;20051;-59
2021/12/13 14:12:11;;;;;;;10.48;8.55;;;;;;;9.70;77.78;101354.06;10204310;28;20443;-59
2021/12/13 14:17:13;;;;;;;8.68;7.75;;;;;;;9.74;78.07;101352.91;10218108;28;20054;-60
2021/12/13 14:22:15;;;;;;;9.48;8.02;;;;;;;9.72;77.32;101358.31;10227605;28;20347;-60
2021/12/13 14:27:22;;;;;;;9.70;7.97;;;;;;;9.61;77.66;101360.78;10223912;28;20524;-61
2021/12/13 14:32:23;;;;;;;10.73;8.80;;;;;;;9.60;78.44;101358.22;10221360;28;20394;-59
2021/12/13 14:37:33;;;;;;;11.80;9.38;;;;;;;9.63;78.41;101363.34;10221521;28;20046;-60
2021/12/13 14:42:36;;;;;;;8.95;8.05;;;;;;;9.65;78.50;101372.06;10226865;28;20106;-60
2021/12/13 14:47:50;;;;;;;10.98;9.77;;;;;;;9.63;78.71;101374.81;10222936;28;20051;-61
2021/12/13 14:52:57;;;;;;;12.07;9.60;;;;;;;9.64;78.85;101381.03;10223834;28;20674;-60
2021/12/13 14:58:06;;;;;;;9.80;8.85;;;;;;;9.61;78.44;101375.84;10223713;28;20138;-60
2021/12/13 15:03:11;;;;;;;9.15;8.25;;;;;;;9.66;78.84;101381.78;10224029;28;20062;-60
2021/12/13 15:08:15;;;;;;;11.13;10.02;;;;;;;9.61;78.60;101391.81;10227399;28;20421;-60
2021/12/13 15:13:19;;;;;;;11.13;10.03;;;;;;;9.65;78.66;101385.38;10211809;28;20182;-61
2021/12/13 15:18:29;;;;;;;10.95;9.30;;;;;;;9.55;78.94;101372.63;10231424;28;20078;-60
2021/12/13 15:23:33;;;;;;;11.80;9.05;;;;;;;9.62;78.80;101382.91;10208828;28;20043;-59
2021/12/13 15:28:42;;;;;;;10.60;8.45;;;;;;;9.62;79.11;101386.41;10227291;28;20161;-60
2021/12/13 15:33:48;;;;;;;9.60;8.60;;;;;;;9.53;79.02;101377.19;10229678;28;20527;-60
2021/12/13 15:38:49;;;;;;;;;;;;;;;9.60;79.10;101384.78;10226900;28;20061;-59
2021/12/13 15:43:56;;;;;;;11.10;9.05;;;;;;;9.55;79.11;101388.56;10223930;28;20020;-59
2021/12/13 15:54:35;;;;;;;11.00;9.77;;;;;;;9.44;79.48;101385.66;10223033;28;20456;-60
2021/12/13 15:59:42;;;;;;;12.15;9.60;;;;;;;9.42;80.08;101376.94;10225712;28;20054;-63
2021/12/13 16:04:48;;;;;;;10.90;9.50;;;;;;;9.43;80.20;101378.66;10221624;28;20570;-60
2021/12/13 16:09:53;;;;;;;11.35;9.13;;;;;;;9.47;79.89;101384.63;10225139;28;20527;-60
2021/12/13 16:14:58;;;;;;;9.98;8.98;;;;;;;9.37;80.02;101379.00;10221028;28;20070;-59
2021/12/13 16:20:00;;;;;;;13.75;9.85;;;;;;;9.34;80.50;101381.84;10221233;28;20058;-60
2021/12/13 16:25:24;;;;;;;14.05;11.25;;;;;;;9.36;80.73;101390.56;10222291;28;20150;-60
2021/12/13 16:30:50;;;;;;;12.75;10.20;;;;;;;9.36;80.64;101387.91;10220197;28;20051;-60
2021/12/13 16:35:58;;;;;;;9.57;8.57;;;;;;;9.41;80.65;101391.16;10220296;28;20047;-60
2021/12/13 16:41:14;;;;;;;10.32;9.32;;;;;;;9.42;80.30;101387.56;10219239;28;20149;-60
2021/12/13 16:46:18;;;;;;;10.93;9.82;;;;;;;9.43;80.21;101394.59;10220271;28;20055;-60
2021/12/13 16:51:25;;;;;;;9.70;8.63;;;;;;;9.41;80.10;101391.16;10218940;28;20059;-60
2021/12/13 16:56:26;;;;;;;10.75;9.65;;;;;;;9.41;80.02;101396.47;10223834;28;20492;-59
2021/12/13 17:01:38;;;;;;;10.77;9.48;;;;;;;9.46;80.03;101399.75;10223867;28;20054;-60
2021/12/13 17:06:45;;;;;;;17.02;14.00;;;;;;;9.47;80.07;101390.84;10225680;28;20051;-60
2021/12/13 17:12:03;;;;;;;9.15;8.27;;;;;;;9.47;80.15;101401.47;10223462;28;20476;-60
2021/12/13 17:17:05;;;;;;;11.32;9.68;;;;;;;9.47;80.03;101397.94;10227069;28;20049;-60
2021/12/13 17:22:10;;;;;;;9.98;8.90;;;;;;;9.45;79.74;101408.66;10220949;28;20508;-60
2021/12/13 17:27:15;;;;;;;11.30;9.27;;;;;;;9.44;80.03;101408.75;10223734;28;20058;-60
2021/12/13 17:32:23;;;;;;;9.48;8.25;;;;;;;9.43;80.05;101405.25;10227398;28;20059;-60
2021/12/13 17:37:24;;;;;;;12.57;9.13;;;;;;;9.52;80.12;101412.69;10226858;28;20620;-59
2021/12/13 17:42:37;;;;;;;10.25;7.72;;;;;;;9.54;80.04;101410.78;10230449;28;20045;-60
2021/12/13 17:47:39;;;;;;;12.70;8.70;;;;;;;9.53;80.08;101411.75;10225573;28;20125;-60
2021/12/13 17:52:48;;;;;;;11.88;8.88;;;;;;;9.54;79.68;101402.78;10224765;28;20716;-60
2021/12/13 17:57:52;;;;;;;10.73;9.63;;;;;;;9.55;79.70;101404.53;10226519;28;20396;-60
2021/12/13 18:03:21;;;;;;;10.07;9.00;;;;;;;9.53;79.75;101401.09;10218987;28;20121;-60
2021/12/13 18:09:11;;;;;;;13.90;8.40;;;;;;;9.52;79.84;101407.34;10228375;28;20062;-59
2021/12/13 18:14:23;;;;;;;9.68;8.52;;;;;;;9.55;79.95;101415.16;10230059;28;20124;-59
2021/12/13 18:19:40;;;;;;;10.73;8.02;;;;;;;9.59;79.80;101414.97;10225313;28;20047;-59
2021/12/13 18:24:41;;;;;;;12.00;9.15;;;;;;;9.57;79.64;101417.72;10224851;28;20412;-59
2021/12/13 18:29:47;;;;;;;11.77;8.70;;;;;;;9.60;79.66;101416.69;10222342;28;20390;-59
2021/12/13 18:34:48;;;;;;;10.68;9.10;;;;;;;9.54;79.82;101418.75;10215910;28;20166;-60
2021/12/13 18:39:51;;;;;;;10.20;9.07;;;;;;;9.56;80.18;101410.69;10226421;28;20047;-61
2021/12/13 18:45:09;;;;;;;11.00;8.63;;;;;;;9.60;80.18;101422.00;10223535;28;20136;-60
2021/12/13 18:50:14;;;;;;;13.13;10.68;;;;;;;9.60;79.98;101424.66;10226380;28;20046;-59
2021/12/13 18:55:32;;;;;;;11.60;10.02;;;;;;;9.62;80.13;101425.44;10224091;28;20142;-59
2021/12/13 19:00:53;;;;;;;14.40;10.98;;;;;;;9.61;80.12;101410.41;10220441;28;20166;-61
2021/12/13 19:05:57;;;;;;;12.48;10.93;;;;;;;9.62;80.24;101412.13;10221250;28;20134;-59
2021/12/13 19:11:04;;;;;;;14.20;10.57;;;;;;;9.62;80.32;101409.47;10206730;28;20420;-61
2021/12/13 19:16:16;;;;;;;12.90;11.57;;;;;;;9.64;80.53;101418.25;10220369;28;20047;-59
2021/12/13 19:21:33;;;;;;;13.32;10.60;;;;;;;9.64;80.37;101419.09;10218830;28;20043;-60
2021/12/13 19:26:36;;;;;;;13.52;11.43;;;;;;;9.51;80.36;101397.66;10222191;28;20353;-60
2021/12/13 19:31:47;;;;;;;13.23;11.40;;;;;;;9.59;80.89;101399.03;10221110;28;20278;-59
2021/12/13 19:37:03;;;;;;;12.85;10.45;;;;;;;9.65;80.63;101401.31;10224627;28;20333;-61
2021/12/13 19:42:17;;;;;;;13.32;11.35;;;;;;;9.64;80.43;101397.81;10218654;28;20369;-59
2021/12/13 19:47:30;;;;;;;13.75;11.43;;;;;;;9.68;80.35;101406.47;10202940;28;20149;-60
2021/12/13 19:52:36;;;;;;;12.27;10.52;;;;;;;9.68;80.50;101404.69;10220091;28;20055;-61
2021/12/13 19:57:43;;;;;;;12.40;9.98;;;;;;;9.68;80.00;101394.03;10244283;23;20195;-66
2021/12/13 20:02:54;;;;;;;11.55;9.77;;;;;;;9.65;80.40;101388.03;10257488;28;20046;-65
2021/12/13 20:08:07;;;;;;;11.57;9.50;;;;;;;9.65;79.35;101388.91;10243376;28;20069;-65
2021/12/13 20:13:19;;;;;;;13.00;10.77;;;;;;;9.67;79.21;101383.50;10259299;28;20725;-64
2021/12/13 20:18:30;;;;;;;12.15;10.23;;;;;;;9.67;78.62;101388.81;10259582;28;20414;-66
2021/12/13 20:24:15;;;;;;;10.13;9.13;;;;;;;9.65;78.38;101378.28;10259282;28;20686;-65
2021/12/13 20:29:25;;;;;;;11.27;9.70;;;;;;;9.66;78.58;101379.13;10094032;29;20523;-65
2021/12/13 20:34:34;;;;;;;11.00;9.00;;;;;;;9.64;78.54;101370.38;10230038;28;20494;-65
2021/12/13 20:39:45;;;;;;;9.88;8.48;;;;;;;9.61;78.96;101373.19;10257487;28;20047;-66
2021/12/13 20:44:51;;;;;;;9.38;8.30;;;;;;;9.66;78.58;101379.97;10251630;28;20057;-67
2021/12/13 20:49:56;;;;;;;11.30;9.68;;;;;;;9.64;78.69;101370.38;10258399;28;20080;-67
2021/12/13 20:55:06;;;;;;;11.23;8.65;;;;;;;9.61;78.71;101370.53;10243252;28;20051;-65
2021/12/13 21:00:12;;;;;;;9.38;8.38;;;;;;;9.66;78.90;101369.31;10251669;28;20615;-66
2021/12/13 21:05:25;;;;;;;11.73;9.27;;;;;;;9.62;78.81;101367.78;10253539;28;20058;-69
2021/12/13 21:10:35;;;;;;;10.57;8.35;;;;;;;9.64;78.08;101370.38;10259272;28;20046;-67
2021/12/13 21:15:45;;;;;;;8.07;7.28;;;;;;;9.63;77.67;101358.03;10263578;28;20125;-66
2021/12/13 21:20:55;;;;;;;13.18;11.43;;;;;;;9.65;77.49;101358.78;10254760;28;20046;-68
2021/12/13 21:26:14;;;;;;;14.82;10.98;;;;;;;9.65;77.58;101346.38;10260359;28;20046;-66
2021/12/13 21:31:22;;;;;;;10.00;8.95;;;;;;;9.65;77.56;101337.53;10258434;28;20460;-68
2021/12/13 21:36:35;;;;;;;14.38;9.85;;;;;;;9.64;77.87;101339.34;10266118;28;20049;-67
2021/12/13 21:41:53;;;;;;;10.70;9.57;;;;;;;9.59;77.90;101324.59;10267543;28;20167;-66
2021/12/13 21:47:16;;;;;;;10.88;9.30;;;;;;;9.64;78.12;101330.50;10274633;28;20117;-66
2021/12/13 21:52:31;;;;;;;10.50;9.40;;;;;;;9.63;78.49;101328.78;10272667;28;20381;-68
2021/12/13 21:57:45;;;;;;;12.73;11.35;;;;;;;9.60;78.75;101326.31;10277769;28;20046;-69
2021/12/13 22:02:49;;;;;;;12.20;8.43;;;;;;;9.61;78.02;101341.28;10261791;28;20452;-67
2021/12/13 22:07:56;;;;;;;10.50;8.90;;;;;;;9.62;77.65;101335.88;10274528;28;20061;-69
2021/12/13 22:13:03;;;;;;;7.85;6.13;;;;;;;9.58;76.56;101334.38;10304680;28;20286;-68
2021/12/13 22:18:21;;;;;;;8.98;6.70;;;;;;;9.53;76.17;101332.00;10268995;28;20046;-67
2021/12/13 22:23:28;;;;;;;6.85;6.15;;;;;;;9.53;76.80;101325.81;10270181;28;20045;-68
2021/12/13 22:28:33;;;;;;;7.38;6.60;;;;;;;9.57;76.29;101331.81;10264585;28;20329;-67
2021/12/13 22:33:37;;;;;;;11.07;8.32;;;;;;;9.51;76.54;101347.16;10276918;28;20047;-68
2021/12/13 22:38:42;;;;;;;7.70;6.90;;;;;;;9.50;76.74;101331.31;10272700;28;20118;-67
2021/12/13 22:43:52;;;;;;;8.85;7.95;;;;;;;9.50;77.33;101337.50;10253303;28;20039;-68
2021/12/13 22:49:10;;;;;;;7.95;7.15;;;;;;;9.52;77.71;101324.97;10269609;28;20476;-67
2021/12/13 22:54:13;;;;;;;11.30;7.78;;;;;;;9.53;77.27;101332.00;10252643;28;20047;-66
2021/12/13 22:59:20;;;;;;;10.65;8.60;;;;;;;9.47;78.04;101327.03;10263787;28;20517;-67
2021/12/13 23:04:25;;;;;;;9.45;7.75;;;;;;;9.40;78.34;101325.69;10274097;28;20043;-67
2021/12/13 23:09:41;;;;;;;9.75;7.50;;;;;;;9.45;78.44;101318.28;10282763;28;20444;-68
2021/12/13 23:14:44;;;;;;;8.32;6.78;;;;;;;9.44;78.30;101321.88;10290627;28;20528;-67
2021/12/13 23:19:46;;;;;;;11.15;7.60;;;;;;;9.47;77.87;101321.72;10273640;28;20047;-68
2021/12/13 23:24:49;;;;;;;9.05;7.47;;;;;;;9.48;77.20;101318.09;10282121;28;20125;-66
2021/12/13 23:30:04;;;;;;;7.47;6.22;;;;;;;9.49;76.76;101319.81;10268445;28;20129;-67
2021/12/13 23:35:17;;;;;;;7.45;6.65;;;;;;;9.46;77.25;101309.38;10260962;28;20047;-68
2021/12/13 23:46:07;;;;;;;7.13;6.40;;;;;;;9.54;76.93;101330.19;10266799;28;20672;-66
2021/12/13 23:51:15;;;;;;;7.22;6.53;;;;;;;9.51;76.77;101322.41;10266891;28;20050;-66
2021/12/13 23:56:20;;;;;;;8.13;6.53;;;;;;;9.55;76.09;101319.47;10250001;28;20548;-67
